Machida, Japan
Current Conditions -  °F | °C
As of 6:09 AM on Wednesday 26 Nov 2014 (Local Time) from RJTY Reporting Station
Moderate Rain Moderate Rain  
Wind Chill:   Ceiling: 1900
Heat Index:   Visibility: 8mi
Dew Point:   Wind: 15mph
Humidity: 100%   Direction: 350°N
Pressure: 30.07"   Gusts: NA
Location:  35.56°N, 139.43°E
Report Text: RJTY 252109Z AUTO 35013KT 8SM R36/5500FT RA OVC019 08/08 A3007 RMK AO2 RAB2100
Loading
Personal Weather Stations






























Interactive Weather Map New forecast layout! Learn more

10-Day Weather Forecast

Advertisements
Track Severe Weather on mobile